Time;durP1;ratioP1;P1;durP2;ratioP2;P2;SDS_P1;SDS_P2;PMS_P1;PMS_P2;Temp;Humidity;BMP_temperature;BMP_pressure;BME280_temperature;BME280_humidity;BME280_pressure;Samples;Min_cycle;Max_cycle;Signal;HPM_P1;HPM_P2
2021/03/22 00:00:37;;;;;;;13.10;3.27;;;20.20;99.90;;;;;;5073112;28;20187;-71
2021/03/22 00:03:05;;;;;;;23.47;3.77;;;20.20;99.90;;;;;;5072214;28;20183;-71
2021/03/22 00:05:33;;;;;;;21.17;3.27;;;20.30;99.90;;;;;;5076792;28;20190;-69
2021/03/22 00:08:00;;;;;;;20.80;2.80;;;20.40;99.90;;;;;;5073730;28;20229;-70
2021/03/22 00:10:30;;;;;;;17.67;3.33;;;20.40;99.90;;;;;;5075606;28;20187;-69
2021/03/22 00:12:57;;;;;;;19.57;2.77;;;20.40;99.90;;;;;;5093866;28;20279;-70
2021/03/22 00:15:26;;;;;;;15.87;2.73;;;20.40;99.90;;;;;;5075641;28;20211;-71
2021/03/22 00:17:53;;;;;;;22.27;3.53;;;20.40;99.90;;;;;;5077667;28;20221;-71
2021/03/22 00:20:21;;;;;;;20.40;2.90;;;20.40;99.90;;;;;;5071746;28;20597;-71
2021/03/22 00:22:48;;;;;;;17.27;2.77;;;20.50;99.90;;;;;;5066526;28;20194;-71
2021/03/22 00:25:17;;;;;;;15.13;2.43;;;20.40;99.90;;;;;;5064373;28;20305;-72
2021/03/22 00:27:45;;;;;;;11.87;2.47;;;20.40;99.90;;;;;;5070090;28;20713;-72
2021/03/22 00:30:22;;;;;;;16.40;2.40;;;20.40;99.90;;;;;;5067239;28;20194;-69
2021/03/22 00:32:49;;;;;;;13.97;2.33;;;20.30;99.90;;;;;;5070718;28;20191;-72
2021/03/22 00:35:18;;;;;;;10.53;2.57;;;20.30;99.90;;;;;;5069882;28;20218;-71
2021/03/22 00:37:46;;;;;;;15.60;2.33;;;20.20;99.90;;;;;;5066792;28;20187;-71
2021/03/22 00:40:15;;;;;;;11.00;2.33;;;19.90;99.90;;;;;;5070814;28;20645;-71
2021/03/22 00:42:43;;;;;;;12.50;2.50;;;19.70;99.90;;;;;;5069211;28;20209;-72
2021/03/22 00:45:13;;;;;;;9.43;1.73;;;19.70;99.90;;;;;;5069205;28;20176;-71
2021/03/22 00:47:40;;;;;;;20.43;7.73;;;19.80;99.90;;;;;;5067065;28;20176;-71
2021/03/22 00:50:09;;;;;;;12.03;2.30;;;19.70;99.90;;;;;;5065835;28;20191;-71
2021/03/22 00:52:37;;;;;;;13.83;2.30;;;19.80;99.90;;;;;;5071495;28;20171;-69
2021/03/22 00:55:05;;;;;;;12.43;2.00;;;19.90;99.90;;;;;;5070816;28;20203;-69
2021/03/22 00:57:33;;;;;;;15.80;2.60;;;19.90;99.90;;;;;;5070625;28;20225;-71
2021/03/22 01:00:00;;;;;;;14.33;1.97;;;19.90;99.90;;;;;;5070600;28;20795;-69
2021/03/22 01:02:27;;;;;;;13.27;2.20;;;19.90;99.90;;;;;;5071478;28;20187;-69
2021/03/22 01:04:55;;;;;;;12.23;2.20;;;19.90;99.90;;;;;;5071352;28;20190;-70
2021/03/22 01:07:22;;;;;;;16.10;2.50;;;19.90;99.90;;;;;;5072499;28;20538;-71
2021/03/22 01:09:49;;;;;;;16.17;2.63;;;20.00;99.90;;;;;;5071519;28;20172;-70
2021/03/22 01:12:17;;;;;;;13.97;2.93;;;20.00;99.90;;;;;;5072722;28;20194;-69
2021/03/22 01:14:44;;;;;;;26.27;3.23;;;19.90;99.90;;;;;;5071903;28;20339;-69
2021/03/22 01:17:11;;;;;;;16.13;3.00;;;19.90;99.90;;;;;;5072168;28;20199;-71
2021/03/22 01:19:39;;;;;;;18.83;3.60;;;19.80;99.90;;;;;;5067643;28;20246;-69
2021/03/22 01:22:06;;;;;;;15.33;3.67;;;19.80;99.90;;;;;;5064051;28;20199;-69
2021/03/22 01:24:33;;;;;;;15.30;3.53;;;19.80;99.90;;;;;;5051902;28;20654;-71
2021/03/22 01:27:07;;;;;;;18.07;3.37;;;19.70;99.90;;;;;;5069666;28;20225;-69
2021/03/22 01:29:42;;;;;;;24.37;5.37;;;19.70;99.90;;;;;;5065729;28;20200;-72
2021/03/22 01:32:12;;;;;;;28.17;4.93;;;19.80;99.90;;;;;;5064589;28;20194;-70
2021/03/22 01:34:39;;;;;;;18.73;3.23;;;19.70;99.90;;;;;;5051775;28;20230;-68
2021/03/22 01:37:08;;;;;;;20.80;3.77;;;19.60;99.90;;;;;;5061174;28;20182;-71
2021/03/22 01:39:38;;;;;;;21.00;3.67;;;19.60;99.90;;;;;;5059098;28;20183;-69
2021/03/22 01:42:43;;;;;;;22.27;3.90;;;19.70;99.90;;;;;;5064739;28;20174;-70
2021/03/22 01:45:11;;;;;;;21.00;4.27;;;19.80;99.90;;;;;;5074431;28;20252;-71
2021/03/22 01:47:39;;;;;;;22.67;3.90;;;19.80;99.90;;;;;;5070526;28;20198;-69
2021/03/22 01:50:18;;;;;;;24.37;4.47;;;19.80;99.90;;;;;;5070915;28;20250;-67
2021/03/22 01:52:49;;;;;;;20.90;3.73;;;19.70;99.90;;;;;;5066175;28;20179;-70
2021/03/22 01:55:18;;;;;;;26.13;4.43;;;19.60;99.90;;;;;;5061028;28;20558;-70
2021/03/22 01:57:47;;;;;;;21.93;3.47;;;19.60;99.90;;;;;;5071316;28;20186;-69
2021/03/22 02:00:29;;;;;;;21.50;3.80;;;19.50;99.90;;;;;;5070988;28;20275;-71
2021/03/22 02:03:05;;;;;;;26.43;3.73;;;19.40;99.90;;;;;;5071641;28;20543;-70
2021/03/22 02:05:33;;;;;;;20.50;3.33;;;19.40;99.90;;;;;;5071428;28;20765;-71
2021/03/22 02:08:03;;;;;;;20.23;2.90;;;19.30;99.90;;;;;;5071517;28;20262;-69
2021/03/22 02:10:32;;;;;;;16.37;3.20;;;19.20;99.90;;;;;;5076504;28;20176;-70
2021/03/22 02:12:59;;;;;;;13.53;2.90;;;19.10;99.90;;;;;;5073136;28;20172;-71
2021/03/22 02:15:27;;;;;;;18.13;3.10;;;19.10;99.90;;;;;;5084845;28;20214;-71
2021/03/22 02:18:20;;;;;;;15.33;2.60;;;19.00;99.90;;;;;;5070726;28;20713;-70
2021/03/22 02:20:53;;;;;;;20.17;5.60;;;19.00;99.90;;;;;;5056374;28;20275;-71
2021/03/22 02:23:33;;;;;;;10.27;3.00;;;19.00;99.90;;;;;;5068267;28;20187;-71
2021/03/22 02:26:07;;;;;;;22.43;2.87;;;19.00;99.90;;;;;;5067263;28;20172;-70
2021/03/22 02:29:15;;;;;;;13.10;2.70;;;19.00;99.90;;;;;;5069543;28;20329;-71
2021/03/22 02:32:01;;;;;;;21.17;3.10;;;19.10;99.90;;;;;;5068997;28;20237;-70
2021/03/22 02:34:37;;;;;;;24.63;4.00;;;19.00;99.90;;;;;;5070473;28;20238;-70
2021/03/22 02:37:07;;;;;;;15.07;3.17;;;19.20;99.90;;;;;;5072005;28;20661;-68
2021/03/22 02:39:55;;;;;;;20.97;3.77;;;19.30;99.90;;;;;;5069604;28;20179;-70
2021/03/22 02:42:24;;;;;;;26.67;3.70;;;19.40;99.90;;;;;;5073420;28;20599;-68
2021/03/22 02:44:51;;;;;;;26.30;5.03;;;19.50;99.90;;;;;;5074705;28;20219;-70
2021/03/22 02:47:30;;;;;;;20.47;4.50;;;19.50;99.90;;;;;;5074900;28;20167;-69
2021/03/22 02:50:00;;;;;;;21.87;3.93;;;19.50;99.90;;;;;;5075833;28;20189;-67
2021/03/22 02:52:48;;;;;;;20.53;3.43;;;19.40;99.90;;;;;;5075431;28;20289;-69
2021/03/22 02:55:33;;;;;;;16.43;3.10;;;19.40;99.90;;;;;;5069561;28;20215;-68
2021/03/22 02:58:06;;;;;;;9.23;1.93;;;19.20;99.90;;;;;;5068043;28;20190;-68
2021/03/22 03:00:40;;;;;;;12.60;3.20;;;19.20;99.90;;;;;;5069497;28;20182;-69
2021/03/22 03:03:15;;;;;;;9.97;2.80;;;19.20;99.90;;;;;;5074282;28;20232;-69
2021/03/22 03:05:50;;;;;;;11.93;2.20;;;19.20;99.90;;;;;;5069820;28;20191;-69
2021/03/22 03:08:39;;;;;;;15.83;3.07;;;19.30;99.90;;;;;;5067768;28;20209;-68
2021/03/22 03:11:08;;;;;;;10.57;2.67;;;19.30;99.90;;;;;;5064325;28;20210;-68
2021/03/22 03:13:37;;;;;;;12.90;2.67;;;19.30;99.90;;;;;;5072866;28;20180;-68
2021/03/22 03:16:05;;;;;;;12.03;1.90;;;19.40;99.90;;;;;;5072552;28;20246;-69
2021/03/22 03:18:32;;;;;;;8.17;2.27;;;19.50;99.90;;;;;;5072575;28;20183;-68
2021/03/22 03:21:00;;;;;;;12.20;2.57;;;19.60;99.90;;;;;;5071996;28;20182;-69
2021/03/22 03:23:30;;;;;;;14.37;2.40;;;19.60;99.90;;;;;;5070256;28;20180;-68
2021/03/22 03:25:57;;;;;;;14.27;2.43;;;19.60;99.90;;;;;;5071757;28;20191;-69
2021/03/22 03:28:25;;;;;;;18.30;6.60;;;19.60;99.90;;;;;;5071876;28;20585;-69
2021/03/22 03:30:52;;;;;;;14.60;3.47;;;19.60;99.90;;;;;;5071023;28;20535;-69
2021/03/22 03:33:19;;;;;;;11.83;2.57;;;19.60;99.90;;;;;;5071652;28;20596;-69
2021/03/22 03:35:47;;;;;;;10.10;2.50;;;19.60;99.90;;;;;;5071478;28;20218;-69
2021/03/22 03:38:14;;;;;;;17.97;3.43;;;19.60;99.90;;;;;;5072376;28;20575;-68
2021/03/22 03:40:45;;;;;;;18.20;2.93;;;19.60;99.90;;;;;;5070637;28;20183;-66
2021/03/22 03:43:14;;;;;;;12.77;2.50;;;19.50;99.90;;;;;;5071213;28;20179;-66
2021/03/22 03:45:44;;;;;;;15.93;2.43;;;19.60;99.90;;;;;;5071638;28;20255;-68
2021/03/22 03:48:21;;;;;;;12.17;2.50;;;19.60;99.90;;;;;;5070778;28;20183;-67
2021/03/22 03:50:49;;;;;;;16.43;2.80;;;19.50;99.90;;;;;;5071383;28;20231;-69
2021/03/22 03:53:17;;;;;;;19.77;2.93;;;19.50;99.90;;;;;;5071196;28;20344;-67
2021/03/22 03:55:44;;;;;;;12.27;2.93;;;19.50;99.90;;;;;;5069337;28;20275;-69
2021/03/22 03:58:12;;;;;;;12.00;2.63;;;19.40;99.90;;;;;;5067919;28;20218;-68
2021/03/22 04:00:42;;;;;;;20.20;2.90;;;19.40;99.90;;;;;;5067878;28;20623;-67
2021/03/22 04:03:28;;;;;;;16.63;3.33;;;19.40;99.90;;;;;;5068509;28;20385;-67
2021/03/22 04:06:15;;;;;;;20.83;4.50;;;19.50;99.90;;;;;;5064996;28;20544;-72
2021/03/22 04:08:46;;;;;;;25.57;5.93;;;19.50;99.90;;;;;;5069695;28;20183;-69
2021/03/22 04:11:17;;;;;;;11.00;4.17;;;19.50;99.90;;;;;;5072012;28;20591;-71
2021/03/22 04:13:44;;;;;;;19.57;3.10;;;19.40;99.90;;;;;;5067839;28;20581;-70
2021/03/22 04:16:14;;;;;;;18.80;4.20;;;19.40;99.90;;;;;;5072848;28;20222;-70
2021/03/22 04:18:42;;;;;;;15.00;2.50;;;19.30;99.90;;;;;;5070725;28;20206;-71
2021/03/22 04:21:13;;;;;;;12.67;2.47;;;19.30;99.90;;;;;;5072269;28;20179;-71
2021/03/22 04:23:43;;;;;;;10.33;2.43;;;19.30;99.90;;;;;;5068825;28;20530;-71
2021/03/22 04:26:11;;;;;;;11.13;2.23;;;19.30;99.90;;;;;;5058213;28;20211;-70
2021/03/22 04:28:39;;;;;;;12.77;2.97;;;19.20;99.90;;;;;;5072259;28;20713;-70
2021/03/22 04:31:08;;;;;;;11.30;3.10;;;19.20;99.90;;;;;;5073319;28;20171;-69
2021/03/22 04:33:35;;;;;;;14.63;2.87;;;19.10;99.90;;;;;;5073360;28;20179;-70
2021/03/22 04:36:04;;;;;;;17.77;3.83;;;19.10;99.90;;;;;;5073063;28;20215;-69
2021/03/22 04:38:32;;;;;;;17.53;3.10;;;19.20;99.90;;;;;;5073125;28;20179;-64
2021/03/22 04:41:00;;;;;;;11.83;2.80;;;19.20;99.90;;;;;;5072677;28;20203;-71
2021/03/22 04:43:28;;;;;;;15.60;2.87;;;19.30;99.90;;;;;;5072071;28;20188;-64
2021/03/22 04:45:55;;;;;;;21.57;4.33;;;19.30;99.90;;;;;;5073066;28;20171;-69
2021/03/22 04:48:23;;;;;;;11.47;2.50;;;19.30;99.90;;;;;;5072991;28;20184;-70
2021/03/22 04:50:51;;;;;;;16.23;2.77;;;19.20;99.90;;;;;;5072588;28;20179;-70
2021/03/22 04:53:18;;;;;;;29.43;4.97;;;19.10;99.90;;;;;;5072554;28;20219;-70
2021/03/22 04:55:45;;;;;;;16.33;3.43;;;19.10;99.90;;;;;;5072618;28;20229;-69
2021/03/22 04:58:13;;;;;;;16.63;6.97;;;19.20;99.90;;;;;;5070371;28;20175;-70
2021/03/22 05:00:44;;;;;;;32.63;12.43;;;19.20;99.90;;;;;;5071491;28;20237;-69
2021/03/22 05:03:15;;;;;;;19.17;4.37;;;19.20;99.90;;;;;;5071195;28;20183;-65
2021/03/22 05:05:43;;;;;;;31.73;7.00;;;19.20;99.90;;;;;;5072203;28;20179;-65
2021/03/22 05:08:13;;;;;;;18.40;3.40;;;19.30;99.90;;;;;;5072143;28;20630;-69
2021/03/22 05:10:43;;;;;;;20.77;3.70;;;19.30;99.90;;;;;;5072391;28;20183;-65
2021/03/22 05:13:13;;;;;;;21.33;4.30;;;19.10;99.90;;;;;;5072431;28;20202;-66
2021/03/22 05:15:41;;;;;;;19.77;3.93;;;19.10;99.90;;;;;;5070849;28;20203;-70
2021/03/22 05:18:09;;;;;;;19.40;4.30;;;19.10;99.90;;;;;;5072274;28;20595;-63
2021/03/22 05:20:42;;;;;;;29.93;6.20;;;19.10;99.90;;;;;;5071535;28;20175;-66
2021/03/22 05:23:13;;;;;;;16.83;3.80;;;19.10;99.90;;;;;;5070560;28;20623;-67
2021/03/22 05:25:40;;;;;;;21.00;4.57;;;19.10;99.90;;;;;;5065330;28;20634;-68
2021/03/22 05:28:11;;;;;;;23.30;3.70;;;19.20;99.90;;;;;;5055736;28;20807;-70
2021/03/22 05:30:39;;;;;;;33.30;20.03;;;19.10;99.90;;;;;;5072174;28;20171;-69
2021/03/22 05:33:10;;;;;;;24.10;6.57;;;19.10;99.90;;;;;;5072080;28;20224;-65
2021/03/22 05:35:38;;;;;;;20.77;3.90;;;19.10;99.90;;;;;;5072068;28;20545;-64
2021/03/22 05:38:07;;;;;;;16.07;4.27;;;19.10;99.90;;;;;;5071166;28;20257;-65
2021/03/22 05:40:46;;;;;;;12.93;3.37;;;19.10;99.90;;;;;;5072133;28;20285;-66
2021/03/22 05:43:21;;;;;;;15.67;3.43;;;19.10;99.90;;;;;;5072227;28;20569;-68
2021/03/22 05:45:51;;;;;;;24.30;4.10;;;19.00;99.90;;;;;;5072126;28;20185;-67
2021/03/22 05:48:59;;;;;;;14.17;2.80;;;19.00;99.90;;;;;;5072427;28;20189;-70
2021/03/22 05:52:04;;;;;;;20.57;3.97;;;19.00;99.90;;;;;;5038002;28;20217;-70
2021/03/22 05:55:15;;;;;;;21.17;3.77;;;19.00;99.90;;;;;;5070568;28;20199;-67
2021/03/22 05:57:58;;;;;;;16.03;3.00;;;18.90;99.90;;;;;;5071842;28;20175;-70
2021/03/22 06:00:37;;;;;;;14.83;3.03;;;18.90;99.90;;;;;;5072328;28;20179;-66
2021/03/22 06:03:18;;;;;;;18.47;3.73;;;18.80;99.90;;;;;;5072089;28;20282;-69
2021/03/22 06:06:29;;;;;;;19.97;3.67;;;18.80;99.90;;;;;;5071704;28;20206;-70
2021/03/22 06:09:08;;;;;;;18.90;4.50;;;18.90;99.90;;;;;;5070419;28;20472;-70
2021/03/22 06:11:36;;;;;;;19.80;6.10;;;18.90;99.90;;;;;;5076031;28;20171;-70
2021/03/22 06:14:29;;;;;;;18.23;6.40;;;18.90;99.90;;;;;;5072015;28;20270;-71
2021/03/22 06:17:11;;;;;;;17.23;3.90;;;18.80;99.90;;;;;;5054815;28;20188;-67
2021/03/22 06:19:46;;;;;;;21.97;3.63;;;18.80;99.90;;;;;;5058149;28;20205;-66
2021/03/22 06:22:29;;;;;;;17.20;4.17;;;18.90;99.90;;;;;;5074404;28;20179;-66
2021/03/22 06:24:58;;;;;;;15.17;2.97;;;18.80;99.90;;;;;;5061942;28;20218;-68
2021/03/22 06:27:26;;;;;;;17.73;3.33;;;18.70;99.90;;;;;;5059067;28;20207;-66
2021/03/22 06:29:55;;;;;;;17.17;3.43;;;18.60;99.90;;;;;;5074357;28;20213;-65
2021/03/22 06:32:24;;;;;;;19.23;3.80;;;18.60;99.90;;;;;;5075458;28;20741;-66
2021/03/22 06:34:58;;;;;;;12.30;2.43;;;18.60;99.90;;;;;;5075004;28;20604;-67
2021/03/22 06:37:33;;;;;;;18.07;2.63;;;18.50;99.90;;;;;;5062756;28;20656;-66
2021/03/22 06:40:32;;;;;;;26.03;4.13;;;18.50;99.90;;;;;;5075027;28;20175;-65
2021/03/22 06:43:10;;;;;;;17.90;2.93;;;18.50;99.90;;;;;;5055316;28;20183;-69
2021/03/22 06:45:44;;;;;;;11.37;2.70;;;18.50;99.90;;;;;;5055341;28;20180;-66
2021/03/22 06:48:55;;;;;;;11.73;2.80;;;18.50;99.90;;;;;;5057272;28;20171;-68
2021/03/22 06:51:22;;;;;;;13.57;2.13;;;18.40;99.90;;;;;;5054926;28;20527;-66
2021/03/22 06:54:01;;;;;;;14.30;3.33;;;18.40;99.90;;;;;;5074165;28;20217;-66
2021/03/22 06:56:36;;;;;;;20.40;3.17;;;18.40;99.90;;;;;;5055154;28;20192;-66
2021/03/22 06:59:11;;;;;;;16.60;2.90;;;18.40;99.90;;;;;;5066253;28;20182;-65
2021/03/22 07:01:41;;;;;;;17.37;2.63;;;18.40;99.90;;;;;;5073552;28;20227;-66
2021/03/22 07:04:31;;;;;;;12.67;2.57;;;18.40;99.90;;;;;;5074842;28;20279;-70
2021/03/22 07:07:28;;;;;;;21.50;3.63;;;18.40;99.90;;;;;;5074678;28;20248;-71
2021/03/22 07:10:01;;;;;;;17.40;5.90;;;18.40;99.90;;;;;;5073634;28;20176;-69
2021/03/22 07:12:36;;;;;;;20.20;3.77;;;18.40;99.90;;;;;;5074714;28;20266;-67
2021/03/22 07:15:23;;;;;;;20.53;3.20;;;18.40;99.90;;;;;;5074882;28;20206;-69
2021/03/22 07:18:10;;;;;;;21.00;3.20;;;18.50;99.90;;;;;;5075107;28;20163;-71
2021/03/22 07:20:38;;;;;;;20.40;3.73;;;18.50;99.90;;;;;;5068197;28;20198;-69
2021/03/22 07:23:24;;;;;;;18.17;3.37;;;18.50;99.90;;;;;;5073538;28;20171;-71
2021/03/22 07:26:00;;;;;;;22.17;3.23;;;18.50;99.90;;;;;;5066275;28;20168;-69
2021/03/22 07:28:47;;;;;;;16.93;3.07;;;18.50;99.90;;;;;;5069522;28;20679;-70
2021/03/22 07:31:47;;;;;;;15.80;3.30;;;18.50;99.90;;;;;;5073997;28;20224;-69
2021/03/22 07:34:23;;;;;;;19.37;3.63;;;18.60;99.90;;;;;;5073253;28;20168;-71
2021/03/22 07:37:08;;;;;;;16.20;3.20;;;18.60;99.90;;;;;;5074337;28;20536;-72
2021/03/22 07:39:45;;;;;;;24.47;3.60;;;18.60;99.90;;;;;;5074514;28;20521;-71
2021/03/22 07:42:18;;;;;;;18.60;3.10;;;18.60;99.90;;;;;;5074438;28;20586;-70
2021/03/22 07:44:58;;;;;;;13.70;3.13;;;18.60;99.90;;;;;;5074349;28;20189;-70
2021/03/22 07:47:45;;;;;;;14.30;3.33;;;18.60;99.90;;;;;;5074536;28;20220;-69
2021/03/22 07:50:35;;;;;;;11.77;2.90;;;18.60;99.90;;;;;;5074144;28;20324;-72
2021/03/22 07:53:19;;;;;;;13.57;2.60;;;18.60;99.90;;;;;;5074072;28;20176;-69
2021/03/22 07:55:55;;;;;;;16.90;3.13;;;18.60;99.90;;;;;;5073249;28;20677;-71
2021/03/22 07:58:43;;;;;;;12.63;2.53;;;18.60;99.90;;;;;;5074341;28;20189;-70
2021/03/22 08:01:21;;;;;;;17.80;3.87;;;18.50;99.90;;;;;;5072278;28;20183;-72
2021/03/22 08:04:17;;;;;;;15.77;2.87;;;18.50;99.90;;;;;;5072393;28;20185;-69
2021/03/22 08:06:54;;;;;;;19.37;3.60;;;18.50;99.90;;;;;;5073714;28;20261;-71
2021/03/22 08:09:40;;;;;;;19.23;7.10;;;18.50;99.90;;;;;;5072744;28;20182;-71
2021/03/22 08:12:13;;;;;;;23.63;6.33;;;18.50;99.90;;;;;;5070406;28;20182;-70
2021/03/22 08:14:42;;;;;;;13.43;3.27;;;18.50;99.90;;;;;;5071726;28;20203;-72
2021/03/22 08:17:21;;;;;;;22.37;3.87;;;18.40;99.90;;;;;;5057371;28;20195;-69
2021/03/22 08:20:10;;;;;;;19.73;3.10;;;18.40;99.90;;;;;;5054679;28;20192;-68
2021/03/22 08:23:03;;;;;;;25.50;3.80;;;18.50;99.90;;;;;;5068216;28;20213;-68
2021/03/22 08:25:49;;;;;;;17.23;3.07;;;18.50;99.90;;;;;;5070444;28;20191;-70
2021/03/22 08:28:29;;;;;;;18.53;3.10;;;18.50;99.90;;;;;;5067279;28;20215;-67
2021/03/22 08:31:04;;;;;;;16.47;2.80;;;18.40;99.90;;;;;;5073264;28;20494;-68
2021/03/22 08:33:45;;;;;;;14.90;2.57;;;18.50;99.90;;;;;;5066451;28;20221;-67
2021/03/22 08:36:40;;;;;;;20.23;4.03;;;18.50;99.90;;;;;;5071482;28;20219;-71
2021/03/22 08:39:16;;;;;;;18.60;3.27;;;18.40;99.90;;;;;;5071652;28;20171;-68
2021/03/22 08:42:01;;;;;;;16.40;3.30;;;18.50;99.90;;;;;;5073343;28;20268;-66
2021/03/22 08:44:45;;;;;;;19.97;3.43;;;18.40;99.90;;;;;;5072472;28;20178;-71
2021/03/22 08:47:23;;;;;;;18.27;2.87;;;18.40;99.90;;;;;;5072130;28;20232;-70
2021/03/22 08:49:58;;;;;;;15.23;2.73;;;18.50;99.90;;;;;;5070600;28;20649;-70
2021/03/22 08:52:32;;;;;;;13.73;2.60;;;18.40;99.90;;;;;;5068217;28;20187;-70
2021/03/22 08:55:22;;;;;;;15.97;3.23;;;18.40;99.90;;;;;;5069674;28;20293;-69
2021/03/22 08:57:55;;;;;;;19.53;3.00;;;18.40;99.90;;;;;;5070684;28;20185;-67
2021/03/22 09:00:35;;;;;;;12.67;2.43;;;18.40;99.90;;;;;;5072004;28;20698;-69
2021/03/22 09:03:33;;;;;;;16.47;3.40;;;18.40;99.90;;;;;;5072309;28;20190;-70
2021/03/22 09:06:27;;;;;;;13.93;2.93;;;18.40;99.90;;;;;;5072444;28;20182;-71
2021/03/22 09:09:00;;;;;;;17.77;3.40;;;18.40;99.90;;;;;;5071263;28;20179;-70
2021/03/22 09:11:32;;;;;;;11.83;2.30;;;18.40;99.90;;;;;;5072901;28;20236;-68
2021/03/22 09:14:10;;;;;;;9.63;2.33;;;18.30;99.90;;;;;;5071860;28;20222;-66
2021/03/22 09:16:51;;;;;;;16.23;2.80;;;18.30;99.90;;;;;;5060721;28;20276;-67
2021/03/22 09:19:22;;;;;;;12.30;2.97;;;18.40;99.90;;;;;;5065809;28;20202;-69
2021/03/22 09:21:56;;;;;;;19.97;3.07;;;18.40;99.90;;;;;;5069523;28;20649;-67
2021/03/22 09:24:42;;;;;;;12.30;3.00;;;18.30;99.90;;;;;;5072392;28;20178;-66
2021/03/22 09:27:15;;;;;;;10.00;2.07;;;18.30;99.90;;;;;;5057759;28;20254;-68
2021/03/22 09:29:46;;;;;;;14.50;3.90;;;18.30;99.90;;;;;;5072066;28;20203;-67
2021/03/22 09:32:26;;;;;;;14.53;3.30;;;18.30;99.90;;;;;;5072432;28;20244;-68
2021/03/22 09:34:58;;;;;;;10.40;3.13;;;18.30;99.90;;;;;;5071886;28;20249;-71
2021/03/22 09:37:38;;;;;;;14.87;3.17;;;18.30;99.90;;;;;;5072008;28;20226;-70
2021/03/22 09:40:21;;;;;;;13.57;3.17;;;18.30;99.90;;;;;;5072548;28;20193;-68
2021/03/22 09:43:06;;;;;;;16.47;3.27;;;18.30;99.90;;;;;;5070471;28;20175;-68
2021/03/22 09:45:37;;;;;;;13.43;2.70;;;18.30;99.90;;;;;;5071950;28;20633;-67
2021/03/22 09:48:33;;;;;;;21.83;3.93;;;18.30;99.90;;;;;;5072326;28;20697;-65
2021/03/22 09:51:04;;;;;;;18.90;3.73;;;18.30;99.90;;;;;;5070177;28;20183;-67
2021/03/22 09:53:57;;;;;;;12.77;3.20;;;18.20;99.90;;;;;;5072087;28;20629;-67
2021/03/22 09:56:38;;;;;;;14.40;2.47;;;18.30;99.90;;;;;;5063120;28;20219;-64
2021/03/22 09:59:27;;;;;;;10.43;2.93;;;18.30;99.90;;;;;;5067414;28;20263;-70
2021/03/22 10:01:57;;;;;;;14.63;2.77;;;18.20;99.90;;;;;;5072071;28;20262;-66
2021/03/22 10:04:32;;;;;;;13.83;2.63;;;18.30;99.90;;;;;;5072316;28;20656;-66
2021/03/22 10:07:08;;;;;;;14.60;2.77;;;18.20;99.90;;;;;;5071315;28;20194;-69
2021/03/22 10:09:53;;;;;;;13.30;3.13;;;18.30;99.90;;;;;;5070962;28;20179;-65
2021/03/22 10:12:31;;;;;;;13.17;3.00;;;18.30;99.90;;;;;;5071514;28;20194;-66
2021/03/22 10:15:07;;;;;;;23.30;3.00;;;18.30;99.90;;;;;;5058408;28;20259;-71
2021/03/22 10:17:37;;;;;;;13.10;2.93;;;18.30;99.90;;;;;;5071697;28;20193;-67
2021/03/22 10:20:34;;;;;;;15.83;2.87;;;18.30;99.90;;;;;;5068919;28;20541;-68
2021/03/22 10:23:26;;;;;;;10.33;2.57;;;18.30;99.90;;;;;;5071712;28;20187;-68
2021/03/22 10:26:18;;;;;;;18.77;3.33;;;18.30;99.90;;;;;;5048842;28;20575;-67
2021/03/22 10:28:45;;;;;;;11.60;2.57;;;18.30;99.90;;;;;;5063842;28;20225;-69
2021/03/22 10:31:23;;;;;;;13.87;2.60;;;18.30;99.90;;;;;;5067486;28;20189;-68
2021/03/22 10:34:02;;;;;;;15.10;3.00;;;18.30;99.90;;;;;;5061922;28;20640;-67
2021/03/22 10:36:38;;;;;;;14.93;2.80;;;18.30;99.90;;;;;;5068399;28;20210;-68
2021/03/22 10:39:08;;;;;;;16.60;3.03;;;18.30;99.90;;;;;;5071221;28;20641;-69
2021/03/22 10:41:40;;;;;;;15.10;2.63;;;18.30;99.90;;;;;;5071590;28;20179;-67
2021/03/22 10:44:14;;;;;;;13.53;2.90;;;18.30;99.90;;;;;;5068620;28;20630;-67
2021/03/22 10:46:43;;;;;;;21.20;3.70;;;18.30;99.90;;;;;;5071263;28;20182;-66
2021/03/22 10:49:22;;;;;;;12.97;3.10;;;18.30;99.90;;;;;;5069615;28;20232;-66
2021/03/22 10:51:53;;;;;;;23.43;3.30;;;18.30;99.90;;;;;;5069042;28;20187;-71
2021/03/22 10:54:23;;;;;;;14.27;2.47;;;18.30;99.90;;;;;;5070945;28;20243;-66
2021/03/22 10:56:59;;;;;;;16.83;4.23;;;18.30;99.90;;;;;;5066383;28;20269;-66
2021/03/22 10:59:29;;;;;;;13.30;2.33;;;18.40;99.90;;;;;;5074359;28;20183;-65
2021/03/22 11:02:00;;;;;;;12.80;2.40;;;18.30;99.90;;;;;;5073587;28;20705;-66
2021/03/22 11:04:34;;;;;;;18.87;2.80;;;18.40;99.90;;;;;;5074629;28;20195;-64
2021/03/22 11:07:31;;;;;;;11.43;1.87;;;18.30;99.90;;;;;;5071727;28;20913;-67
2021/03/22 11:10:16;;;;;;;15.67;2.87;;;18.40;99.90;;;;;;5074306;28;20201;-69
2021/03/22 11:12:45;;;;;;;10.50;2.10;;;18.40;99.90;;;;;;5073502;28;20183;-69
2021/03/22 11:15:20;;;;;;;9.57;2.30;;;18.40;99.90;;;;;;5074877;28;20202;-67
2021/03/22 11:17:50;;;;;;;12.47;3.37;;;18.40;99.90;;;;;;5074664;28;20183;-66
2021/03/22 11:20:19;;;;;;;13.53;2.33;;;18.40;99.90;;;;;;5073173;28;20550;-67
2021/03/22 11:22:49;;;;;;;10.83;2.80;;;18.40;99.90;;;;;;5074048;28;20183;-68
2021/03/22 11:25:32;;;;;;;10.30;2.43;;;18.40;99.90;;;;;;5062540;28;20188;-66
2021/03/22 11:28:21;;;;;;;19.37;3.03;;;18.40;99.90;;;;;;5060962;28;20251;-71
2021/03/22 11:30:54;;;;;;;14.03;2.73;;;18.40;99.90;;;;;;5061082;28;20237;-71
2021/03/22 11:33:39;;;;;;;18.03;2.97;;;18.40;99.90;;;;;;5074501;28;20245;-70
2021/03/22 11:36:20;;;;;;;11.97;2.50;;;18.40;99.90;;;;;;5061620;28;20235;-70
2021/03/22 11:38:54;;;;;;;18.57;2.47;;;18.40;99.90;;;;;;5065292;28;20179;-71
2021/03/22 11:41:39;;;;;;;11.10;1.87;;;18.40;99.90;;;;;;5073566;28;20236;-71
2021/03/22 11:44:18;;;;;;;12.23;2.87;;;18.40;99.90;;;;;;5071801;28;20182;-70
2021/03/22 11:46:52;;;;;;;12.80;2.53;;;18.40;99.90;;;;;;5069022;28;20679;-69
2021/03/22 11:49:41;;;;;;;15.47;3.00;;;18.40;99.90;;;;;;5074382;28;20179;-71
2021/03/22 11:52:35;;;;;;;21.40;3.50;;;18.40;99.90;;;;;;5073064;28;20175;-70
2021/03/22 11:55:08;;;;;;;17.27;2.70;;;18.40;99.90;;;;;;5069206;28;20228;-70
2021/03/22 11:57:38;;;;;;;18.93;2.53;;;18.40;99.90;;;;;;5072649;28;20512;-72
2021/03/22 12:00:19;;;;;;;11.47;2.17;;;18.40;99.90;;;;;;5074129;28;20547;-70
2021/03/22 12:02:52;;;;;;;16.03;2.30;;;18.40;99.90;;;;;;5073854;28;20179;-71
2021/03/22 12:05:32;;;;;;;12.13;2.37;;;18.40;99.90;;;;;;5073111;28;20182;-68
2021/03/22 12:08:01;;;;;;;13.30;2.13;;;18.40;99.90;;;;;;5072969;28;20179;-69
2021/03/22 12:10:33;;;;;;;15.17;2.13;;;18.30;99.90;;;;;;5072109;28;20171;-70
2021/03/22 12:13:04;;;;;;;6.80;1.80;;;18.30;99.90;;;;;;5073146;28;20652;-71
2021/03/22 12:15:31;;;;;;;10.20;1.93;;;18.30;99.90;;;;;;5073601;28;20264;-69
2021/03/22 12:18:08;;;;;;;15.90;2.33;;;18.30;99.90;;;;;;5071930;28;20666;-69
2021/03/22 12:20:37;;;;;;;10.37;2.17;;;18.30;99.90;;;;;;5070653;28;20266;-69
2021/03/22 12:23:05;;;;;;;11.60;2.17;;;18.30;99.90;;;;;;5073618;28;20270;-69
2021/03/22 12:25:36;;;;;;;16.43;2.00;;;18.30;99.90;;;;;;5067047;28;20181;-70
2021/03/22 12:28:04;;;;;;;11.37;1.90;;;18.30;99.90;;;;;;5053067;28;20295;-69
2021/03/22 12:30:33;;;;;;;11.30;1.93;;;18.30;99.90;;;;;;5064002;28;20194;-68
2021/03/22 12:33:01;;;;;;;11.33;2.40;;;18.30;99.90;;;;;;5073333;28;20183;-66
2021/03/22 12:35:33;;;;;;;11.80;2.10;;;18.20;99.90;;;;;;5070545;28;20243;-70
2021/03/22 12:38:02;;;;;;;13.97;2.17;;;18.20;99.90;;;;;;5071043;28;20530;-67
2021/03/22 12:40:29;;;;;;;10.10;1.90;;;18.20;99.90;;;;;;5073578;28;20175;-68
2021/03/22 12:42:58;;;;;;;16.57;2.10;;;18.20;99.90;;;;;;5072630;28;20689;-69
2021/03/22 12:45:37;;;;;;;14.40;2.10;;;18.20;99.90;;;;;;5073304;28;20277;-68
2021/03/22 12:48:06;;;;;;;14.17;2.83;;;18.10;99.90;;;;;;5056589;28;20314;-69
2021/03/22 12:50:38;;;;;;;13.93;2.00;;;18.20;99.90;;;;;;5072232;28;20190;-67
2021/03/22 12:53:08;;;;;;;13.00;2.50;;;18.20;99.90;;;;;;5068627;28;20171;-70
2021/03/22 12:55:36;;;;;;;15.90;2.30;;;18.20;99.90;;;;;;5072460;28;20210;-70
2021/03/22 12:58:11;;;;;;;16.27;1.90;;;18.20;99.90;;;;;;5061130;28;20171;-68
2021/03/22 13:00:39;;;;;;;15.07;2.63;;;18.10;99.90;;;;;;5071382;28;20519;-70
2021/03/22 13:03:06;;;;;;;10.77;2.10;;;18.10;99.90;;;;;;5070753;28;20737;-68
2021/03/22 13:05:34;;;;;;;7.83;1.57;;;18.10;99.90;;;;;;5072608;28;20187;-68
2021/03/22 13:08:02;;;;;;;9.83;2.00;;;18.10;99.90;;;;;;5072531;28;20178;-70
2021/03/22 13:10:32;;;;;;;8.23;1.27;;;18.00;99.90;;;;;;5072506;28;20237;-68
2021/03/22 13:13:01;;;;;;;8.83;1.87;;;18.00;99.90;;;;;;5071102;28;20640;-67
2021/03/22 13:15:31;;;;;;;16.90;2.23;;;18.10;99.90;;;;;;5071126;28;20225;-71
2021/03/22 13:17:59;;;;;;;12.00;1.50;;;18.00;99.90;;;;;;5071747;28;20217;-70